Time;durP1;ratioP1;P1;durP2;ratioP2;P2;SDS_P1;SDS_P2;PMS_P1;PMS_P2;Temp;Humidity;BMP_temperature;BMP_pressure;BME280_temperature;BME280_humidity;BME280_pressure;Samples;Min_cycle;Max_cycle;Signal;HPM_P1;HPM_P2
2021/08/11 00:04:21;;;;;;;0.40;0.40;;;;;;;15.15;66.67;100597.78;6191066;23;20040;-75
2021/08/11 00:10:36;;;;;;;0.30;0.30;;;;;;;15.10;66.58;100594.28;6192655;23;20036;-76
2021/08/11 00:20:42;;;;;;;;;;;;;;;;;;;;;
2021/08/11 00:27:09;;;;;;;;;;;;;;;;;;;;;
2021/08/11 00:33:49;;;;;;;0.10;0.10;;;;;;;14.90;66.49;100611.84;6070585;23;20031;-76
2021/08/11 00:40:23;;;;;;;0.10;0.10;;;;;;;14.90;65.64;100598.09;6071961;23;20021;-76
2021/08/11 00:46:33;;;;;;;0.20;0.20;;;;;;;14.85;65.70;100590.72;5964052;24;20069;-78
2021/08/11 00:50:01;;;;;;;;;;;;;;;;;;;;;
2021/08/11 01:07:05;;;;;;;;;;;;;;;;;;;;;
2021/08/11 01:13:13;;;;;;;;;;;;;;;;;;;;;
2021/08/11 01:16:59;;;;;;;;;;;;;;;;;;;;;
2021/08/11 01:19:47;;;;;;;0.10;0.10;;;;;;;14.70;66.61;100586.16;5759050;24;20047;-76
2021/08/11 01:27:24;;;;;;;;;;;;;;;;;;;;;
2021/08/11 01:34:17;;;;;;;0.10;0.10;;;;;;;14.64;66.14;100554.28;5832628;24;20010;-80
2021/08/11 01:37:27;;;;;;;;;;;;;;;;;;;;;
2021/08/11 01:51:36;;;;;;;0.35;0.30;;;;;;;14.44;66.53;100561.59;5848415;24;20327;-80
2021/08/11 01:54:41;;;;;;;0.20;0.20;;;;;;;14.39;66.83;100560.81;5848503;24;20022;-79
2021/08/11 02:00:25;;;;;;;2.17;0.30;;;;;;;14.14;67.14;100551.66;6000732;23;20529;-79
2021/08/11 02:03:18;;;;;;;0.35;0.30;;;;;;;14.26;67.42;100578.81;6140513;23;20014;-79
2021/08/11 02:06:21;;;;;;;;;;;;;;;;;;;;;
2021/08/11 02:13:00;;;;;;;;;;;;;;;;;;;;;
2021/08/11 02:53:38;;;;;;;0.65;0.50;;;;;;;14.22;68.74;100585.97;5985401;23;20154;-79
2021/08/11 03:03:05;;;;;;;;;;;;;;;;;;;;;
2021/08/11 03:12:54;;;;;;;0.57;0.45;;;;;;;14.00;69.11;100576.22;6035336;23;20046;-79
2021/08/11 03:15:58;;;;;;;0.63;0.60;;;;;;;14.02;70.23;100576.78;6093097;23;20001;-78
2021/08/11 03:29:44;;;;;;;0.38;0.38;;;;;;;13.90;70.49;100593.63;5934604;24;20020;-76
2021/08/11 03:39:14;;;;;;;;;;;;;;;;;;;;;
2021/08/11 03:41:42;;;;;;;0.32;0.20;;;;;;;13.63;69.98;100563.81;6093132;23;20056;-76
2021/08/11 03:44:34;;;;;;;0.35;0.35;;;;;;;13.77;70.81;100595.06;6076643;23;20017;-76
2021/08/11 03:47:16;;;;;;;;;;;;;;;;;;;;;
2021/08/11 03:51:03;;;;;;;0.45;0.38;;;;;;;13.60;71.01;100567.94;6093415;23;20074;-76
2021/08/11 03:57:34;;;;;;;0.63;0.63;;;;;;;13.71;71.36;100593.47;6075844;23;20022;-76
2021/08/11 04:07:40;;;;;;;;;;;;;;;;;;;;;
2021/08/11 04:10:25;;;;;;;;;;;;;;;;;;;;;
2021/08/11 04:13:26;;;;;;;;;;;;;;;;;;;;;
2021/08/11 04:26:57;;;;;;;0.98;0.80;;;;;;;13.41;72.20;100555.97;5959849;24;20063;-76
2021/08/11 04:33:24;;;;;;;;;;;;;;;;;;;;;
2021/08/11 04:43:02;;;;;;;0.30;0.30;;;;;;;13.74;71.81;100575.56;5904895;24;20525;-76
2021/08/11 04:46:27;;;;;;;0.25;0.25;;;;;;;13.76;71.78;100571.44;5919026;24;20013;-77
2021/08/11 04:49:03;;;;;;;1.60;0.85;;;;;;;13.66;72.31;100567.94;5958755;23;20321;-75
2021/08/11 04:51:32;;;;;;;0.93;0.93;;;;;;;13.63;72.83;100563.81;6050318;23;20014;-81
2021/08/11 05:01:04;;;;;;;0.68;0.68;;;;;;;13.69;72.02;100565.41;6100868;23;20005;-79
2021/08/11 05:03:47;;;;;;;0.60;0.60;;;;;;;13.76;72.49;100585.16;6142656;23;20036;-79
2021/08/11 05:06:51;;;;;;;0.73;0.73;;;;;;;13.77;72.46;100586.81;6166577;23;20005;-78
2021/08/11 05:09:48;;;;;;;0.50;0.50;;;;;;;13.77;71.94;100573.09;6137573;23;20007;-79
2021/08/11 05:19:04;;;;;;;0.38;0.35;;;;;;;13.70;72.13;100564.31;5957616;23;20091;-79
2021/08/11 05:21:59;;;;;;;;;;;;;;;;;;;;;
2021/08/11 05:28:43;;;;;;;;;;;;;;;;;;;;;
2021/08/11 05:32:10;;;;;;;0.30;0.30;;;;;;;13.96;72.70;100584.22;6161311;23;20039;-76
2021/08/11 05:35:22;;;;;;;0.50;0.50;;;;;;;13.89;72.49;100571.91;6087543;23;20035;-76
2021/08/11 05:38:22;;;;;;;;;;;;;;;;;;;;;
2021/08/11 05:40:50;;;;;;;0.75;0.75;;;;;;;14.01;72.63;100591.63;6202439;23;20012;-78
2021/08/11 05:44:35;;;;;;;1.42;0.50;;;;;;;14.00;72.02;100573.47;6148768;23;20025;-76
2021/08/11 05:47:30;;;;;;;0.52;0.50;;;;;;;14.09;72.53;100588.28;6049539;23;20014;-75
2021/08/11 05:50:25;;;;;;;0.73;0.73;;;;;;;14.09;72.19;100588.28;6030409;23;20015;-77
2021/08/11 05:52:50;;;;;;;1.20;1.10;;;;;;;14.18;72.18;100620.66;6029320;23;20027;-76
2021/08/11 05:56:24;;;;;;;;;;;;;;;;;;;;;
2021/08/11 05:59:02;;;;;;;0.60;0.60;;;;;;;14.01;72.84;100588.88;6018405;23;20035;-76
2021/08/11 06:05:41;;;;;;;;;;;;;;;;;;;;;
2021/08/11 06:12:04;;;;;;;;;;;;;;;;;;;;;
2021/08/11 06:14:48;;;;;;;0.75;0.75;;;;;;;14.16;72.21;100601.69;6047569;23;20483;-77
2021/08/11 06:17:23;;;;;;;0.90;0.90;;;;;;;14.14;72.28;100601.97;6023437;23;20340;-76
2021/08/11 06:19:55;;;;;;;0.60;0.55;;;;;;;14.31;72.39;100623.59;6021965;23;20126;-77
2021/08/11 06:22:22;;;;;;;0.60;0.55;;;;;;;14.33;72.90;100615.06;6032336;23;20107;-79
2021/08/11 06:24:47;;;;;;;0.60;0.60;;;;;;;14.35;72.25;100617.53;6146895;23;20076;-78
2021/08/11 06:27:27;;;;;;;0.55;0.55;;;;;;;14.46;72.56;100628.16;6171401;23;20020;-80
2021/08/11 06:29:56;;;;;;;0.50;0.50;;;;;;;14.50;72.75;100633.91;6146376;23;20067;-77
2021/08/11 06:32:21;;;;;;;0.45;0.45;;;;;;;14.46;72.55;100627.34;6145015;23;20443;-76
2021/08/11 06:34:47;;;;;;;0.50;0.47;;;;;;;14.53;73.06;100622.34;6166908;23;20012;-76
2021/08/11 06:51:05;;;;;;;;;;;;;;;;;;;;;
2021/08/11 07:01:16;;;;;;;;;;;;;;;;;;;;;
2021/08/11 07:04:25;;;;;;;2.20;1.88;;;;;;;16.26;71.33;100644.66;6035719;23;20053;-75
2021/08/11 07:14:05;;;;;;;0.70;0.70;;;;;;;16.84;70.82;100646.19;6014757;23;20014;-73
2021/08/11 07:17:23;;;;;;;0.80;0.80;;;;;;;16.96;70.38;100650.47;6042867;23;20035;-72
2021/08/11 07:19:54;;;;;;;1.30;1.00;;;;;;;17.02;70.41;100649.22;6039207;23;20011;-73
2021/08/11 07:22:22;;;;;;;1.23;1.10;;;;;;;17.10;69.99;100654.88;6130090;23;20013;-73
2021/08/11 07:25:41;;;;;;;1.70;1.60;;;;;;;17.21;69.58;100661.03;6134775;23;20007;-73
2021/08/11 07:28:08;;;;;;;2.15;1.63;;;;;;;17.05;69.93;100651.38;6131840;23;21390;-74
2021/08/11 07:34:05;;;;;;;2.22;1.10;;;;;;;17.02;70.09;100668.56;6187674;23;20007;-74
2021/08/11 07:36:32;;;;;;;1.10;1.00;;;;;;;16.97;69.71;100661.19;6117100;23;20005;-78
2021/08/11 07:39:12;;;;;;;1.25;1.25;;;;;;;17.05;69.81;100667.97;6165312;23;20368;-77
2021/08/11 07:41:56;;;;;;;;;;;;;;;;;;;;;
2021/08/11 07:44:33;;;;;;;1.85;1.75;;;;;;;16.93;69.93;100683.06;6071900;23;20047;-73
2021/08/11 07:46:59;;;;;;;1.30;1.25;;;;;;;16.96;69.76;100669.78;6166782;23;20009;-74
2021/08/11 07:49:25;;;;;;;1.17;1.17;;;;;;;16.98;70.14;100656.47;6188307;23;20084;-74
2021/08/11 07:51:50;;;;;;;1.35;1.25;;;;;;;17.11;69.78;100655.69;6173875;23;20055;-71
2021/08/11 07:54:18;;;;;;;1.50;1.50;;;;;;;17.30;69.57;100657.56;6117391;23;20028;-74
2021/08/11 07:56:44;;;;;;;1.48;1.38;;;;;;;17.56;69.08;100666.97;6165872;23;20005;-74
2021/08/11 07:59:11;;;;;;;1.67;1.55;;;;;;;17.75;68.79;100663.28;6140170;23;20015;-75
2021/08/11 08:01:41;;;;;;;1.80;1.70;;;;;;;17.92;68.52;100674.56;6189657;23;20044;-73
2021/08/11 08:04:06;;;;;;;1.90;1.80;;;;;;;18.03;67.74;100666.06;6163134;23;20004;-72
2021/08/11 08:06:32;;;;;;;2.22;2.05;;;;;;;18.04;67.26;100681.53;6189828;23;20230;-75
2021/08/11 08:09:03;;;;;;;1.98;1.88;;;;;;;18.17;67.64;100672.38;6138744;23;20009;-75
2021/08/11 08:11:33;;;;;;;3.55;2.03;;;;;;;18.25;66.70;100677.19;6117382;23;20005;-75
2021/08/11 08:14:01;;;;;;;1.98;1.77;;;;;;;18.38;66.54;100677.44;6191155;23;20016;-75
2021/08/11 08:16:27;;;;;;;2.05;1.65;;;;;;;18.38;65.98;100664.41;6138966;23;20001;-75
2021/08/11 08:18:55;;;;;;;1.75;1.35;;;;;;;18.57;66.00;100680.03;6160744;23;20028;-74
2021/08/11 08:21:24;;;;;;;1.30;1.20;;;;;;;18.78;65.36;100669.28;6162733;23;20063;-74
2021/08/11 08:23:51;;;;;;;0.80;0.80;;;;;;;19.00;65.28;100666.53;6113663;23;20005;-74
2021/08/11 08:26:26;;;;;;;1.45;0.90;;;;;;;19.19;63.75;100676.56;6163566;23;20043;-75
2021/08/11 08:29:14;;;;;;;4.22;1.80;;;;;;;19.23;63.40;100665.66;6166622;23;20028;-74
2021/08/11 08:31:40;;;;;;;2.85;1.80;;;;;;;19.30;63.37;100675.16;6154824;23;20015;-74
2021/08/11 08:34:08;;;;;;;2.05;1.00;;;;;;;19.25;63.03;100655.88;6166532;23;20017;-74
2021/08/11 08:36:35;;;;;;;8.55;1.13;;;;;;;19.31;62.65;100665.69;6165548;23;20061;-73
2021/08/11 08:39:04;;;;;;;1.17;1.17;;;;;;;19.41;62.38;100655.47;6162350;23;20049;-74
2021/08/11 08:41:31;;;;;;;2.80;2.60;;;;;;;19.67;62.72;100666.66;6133336;23;20044;-75
2021/08/11 08:43:58;;;;;;;1.63;1.45;;;;;;;19.87;61.38;100659.69;6161233;23;20025;-74
2021/08/11 08:46:26;;;;;;;2.00;1.20;;;;;;;19.97;60.77;100655.81;6139921;23;20147;-74
2021/08/11 08:48:55;;;;;;;3.33;1.27;;;;;;;20.10;59.73;100659.59;6113758;23;20021;-75
2021/08/11 08:51:23;;;;;;;1.98;1.45;;;;;;;20.44;60.14;100663.53;6135809;23;20039;-74
2021/08/11 08:53:49;;;;;;;0.95;0.95;;;;;;;20.73;59.46;100663.69;6138018;23;20035;-75
2021/08/11 08:56:18;;;;;;;2.10;1.10;;;;;;;20.87;58.37;100659.91;6112623;23;20013;-74
2021/08/11 08:58:46;;;;;;;1.85;1.70;;;;;;;20.91;56.76;100653.38;6138730;23;20013;-75
2021/08/11 09:01:13;;;;;;;3.70;1.00;;;;;;;20.96;56.89;100657.91;6114468;23;20005;-74
2021/08/11 09:03:46;;;;;;;3.30;1.30;;;;;;;21.02;57.23;100659.38;6189447;23;20043;-73
2021/08/11 09:06:15;;;;;;;1.48;1.02;;;;;;;21.14;57.42;100653.13;6164497;23;20016;-73
2021/08/11 09:09:07;;;;;;;0.98;0.98;;;;;;;21.47;56.47;100657.28;6113855;23;20009;-74
2021/08/11 09:11:40;;;;;;;1.33;1.23;;;;;;;21.73;55.71;100669.09;6141999;23;20078;-74
2021/08/11 09:14:26;;;;;;;1.33;0.98;;;;;;;21.94;54.77;100654.41;6136073;23;20019;-73
2021/08/11 09:20:49;;;;;;;1.33;1.00;;;;;;;22.31;53.51;100661.03;6072169;23;20021;-74
2021/08/11 09:23:31;;;;;;;1.80;1.02;;;;;;;22.40;53.01;100663.75;6086058;23;20009;-75
2021/08/11 09:26:04;;;;;;;1.55;1.35;;;;;;;22.65;53.52;100652.72;6135544;23;20088;-72
2021/08/11 09:31:32;;;;;;;1.23;0.90;;;;;;;23.53;51.90;100653.38;6138386;23;20126;-73
2021/08/11 09:34:11;;;;;;;4.93;0.83;;;;;;;23.98;50.91;100662.00;6133707;23;20006;-75
2021/08/11 09:36:54;;;;;;;0.75;0.75;;;;;;;24.70;49.52;100652.94;6156941;23;20223;-74
2021/08/11 09:39:23;;;;;;;0.85;0.85;;;;;;;25.40;47.46;100657.19;6133105;23;20013;-74
2021/08/11 09:48:41;;;;;;;1.27;0.93;;;;;;;26.06;43.96;100654.75;6190193;23;20538;-74
2021/08/11 09:51:08;;;;;;;0.95;0.75;;;;;;;26.51;44.81;100650.50;6201180;23;20012;-73
2021/08/11 09:53:37;;;;;;;0.95;0.77;;;;;;;26.73;41.88;100659.38;6199218;23;20009;-74
2021/08/11 09:56:11;;;;;;;2.42;0.77;;;;;;;26.53;42.04;100650.94;6146587;23;20484;-73
2021/08/11 09:59:02;;;;;;;4.57;0.60;;;;;;;26.75;41.88;100671.03;6171911;23;20036;-74
2021/08/11 10:01:29;;;;;;;0.77;0.60;;;;;;;27.04;40.71;100668.78;6175088;23;20016;-73
2021/08/11 10:04:10;;;;;;;3.60;0.82;;;;;;;27.40;40.12;100663.81;6144990;23;20028;-73
2021/08/11 10:06:46;;;;;;;4.53;0.80;;;;;;;27.82;39.72;100668.50;6148565;23;20009;-73
2021/08/11 10:09:24;;;;;;;0.80;0.77;;;;;;;28.14;39.12;100663.38;6168216;23;20067;-75
2021/08/11 10:11:59;;;;;;;0.60;0.60;;;;;;;29.19;38.25;100664.56;6194190;23;20081;-75
2021/08/11 10:14:30;;;;;;;5.10;1.13;;;;;;;30.34;36.97;100675.88;6167497;23;20535;-74
2021/08/11 10:17:01;;;;;;;1.38;0.93;;;;;;;30.56;34.53;100676.81;6164943;23;20040;-74
2021/08/11 10:19:32;;;;;;;1.73;1.25;;;;;;;29.93;33.85;100665.59;6140946;23;20060;-73
2021/08/11 10:22:08;;;;;;;1.63;1.15;;;;;;;29.17;35.30;100679.03;6141687;23;20078;-74
2021/08/11 10:24:35;;;;;;;1.88;0.85;;;;;;;28.22;36.08;100672.69;6143416;23;19997;-74
2021/08/11 10:27:06;;;;;;;0.73;0.57;;;;;;;27.52;37.63;100658.00;6163306;23;20002;-74
2021/08/11 10:29:33;;;;;;;1.42;1.33;;;;;;;27.02;38.49;100666.34;6141828;23;20013;-74
2021/08/11 10:32:05;;;;;;;1.95;1.05;;;;;;;26.44;39.71;100664.38;6140180;23;20009;-73
2021/08/11 10:34:33;;;;;;;0.70;0.68;;;;;;;26.16;39.90;100648.59;6143560;23;20005;-73
2021/08/11 10:37:03;;;;;;;0.65;0.50;;;;;;;26.31;40.76;100652.50;6141710;23;20033;-73
2021/08/11 10:39:37;;;;;;;0.65;0.52;;;;;;;26.45;40.83;100649.19;6193040;23;20012;-74
2021/08/11 10:42:15;;;;;;;1.05;0.77;;;;;;;26.71;40.55;100667.34;6190270;23;20024;-75
2021/08/11 10:44:41;;;;;;;0.77;0.52;;;;;;;26.51;39.53;100661.72;6164958;23;20032;-75
2021/08/11 10:47:08;;;;;;;1.08;0.77;;;;;;;26.27;39.85;100655.25;6165085;23;20023;-73
2021/08/11 10:49:51;;;;;;;1.13;0.60;;;;;;;26.35;40.04;100655.38;6165959;23;20012;-75
2021/08/11 10:52:18;;;;;;;0.75;0.70;;;;;;;26.21;40.55;100656.72;6192076;23;20009;-73
2021/08/11 10:54:58;;;;;;;3.70;0.80;;;;;;;26.12;40.55;100664.50;6140163;23;19993;-74
2021/08/11 10:57:36;;;;;;;1.85;0.50;;;;;;;25.99;41.02;100648.97;6140506;23;20016;-73
2021/08/11 11:00:06;;;;;;;5.45;0.77;;;;;;;25.96;40.87;100651.34;6163797;23;20018;-74
2021/08/11 11:02:39;;;;;;;0.80;0.70;;;;;;;25.90;41.08;100658.38;6190245;23;20013;-74
2021/08/11 11:05:28;;;;;;;0.90;0.40;;;;;;;25.82;41.25;100653.81;6166278;23;20008;-73
2021/08/11 11:08:15;;;;;;;0.43;0.43;;;;;;;26.02;41.37;100665.91;6144909;23;20091;-73
2021/08/11 11:10:43;;;;;;;0.60;0.60;;;;;;;26.06;41.55;100665.97;6166829;23;20001;-74
2021/08/11 11:13:33;;;;;;;0.73;0.73;;;;;;;25.99;40.26;100654.56;6139651;23;20009;-73
2021/08/11 11:16:02;;;;;;;0.73;0.73;;;;;;;25.82;41.10;100652.97;6167720;23;20044;-73
2021/08/11 11:18:29;;;;;;;0.63;0.50;;;;;;;25.90;41.46;100647.19;6165747;23;19989;-73
2021/08/11 11:20:58;;;;;;;0.68;0.50;;;;;;;26.14;41.59;100653.75;6117455;23;20016;-72
2021/08/11 11:23:43;;;;;;;0.50;0.50;;;;;;;26.32;40.76;100645.72;6163778;23;20064;-74
2021/08/11 11:26:14;;;;;;;0.70;0.70;;;;;;;26.38;40.36;100654.66;6166725;23;20059;-73
2021/08/11 11:28:59;;;;;;;0.70;0.70;;;;;;;26.18;39.98;100645.41;6165436;23;20040;-73
2021/08/11 11:31:51;;;;;;;0.52;0.40;;;;;;;26.14;40.45;100650.94;6193216;23;20028;-72
2021/08/11 11:34:29;;;;;;;0.52;0.40;;;;;;;26.07;40.50;100645.19;6166429;23;20397;-74
2021/08/11 11:36:57;;;;;;;0.75;0.70;;;;;;;26.16;40.11;100659.78;6165015;23;20532;-74
2021/08/11 11:39:33;;;;;;;0.55;0.47;;;;;;;26.10;40.54;100655.66;6192104;23;20075;-74
2021/08/11 11:42:25;;;;;;;3.85;0.70;;;;;;;26.25;40.80;100660.38;6163498;23;20029;-73
2021/08/11 11:44:53;;;;;;;0.80;0.70;;;;;;;26.91;39.00;100660.53;6193360;23;20016;-74
2021/08/11 11:50:26;;;;;;;0.75;0.75;;;;;;;26.91;37.87;100649.31;6192630;23;20013;-73
2021/08/11 11:53:03;;;;;;;0.65;0.57;;;;;;;26.74;38.30;100649.81;6169831;23;20009;-73
2021/08/11 11:55:41;;;;;;;0.57;0.57;;;;;;;26.70;38.54;100643.31;6169363;23;20001;-73
2021/08/11 11:58:28;;;;;;;0.68;0.68;;;;;;;26.84;38.27;100643.56;6167729;23;20723;-74
2021/08/11 12:00:59;;;;;;;1.10;1.00;;;;;;;26.82;37.78;100643.13;6137121;23;20017;-73
2021/08/11 12:03:40;;;;;;;0.95;0.82;;;;;;;26.77;38.13;100644.25;6165785;23;20005;-73
2021/08/11 12:06:08;;;;;;;0.90;0.65;;;;;;;26.64;38.64;100635.16;6164426;23;20313;-75
2021/08/11 12:08:36;;;;;;;3.20;0.70;;;;;;;26.43;38.62;100629.09;6164184;23;20004;-73
2021/08/11 12:11:06;;;;;;;0.65;0.65;;;;;;;26.42;39.11;100625.50;6140507;23;20075;-73
2021/08/11 12:14:02;;;;;;;1.05;0.85;;;;;;;27.88;40.47;100627.66;6163931;23;20035;-74
2021/08/11 12:16:39;;;;;;;0.60;0.60;;;;;;;29.38;37.05;100633.41;6163987;23;20112;-75
2021/08/11 12:19:17;;;;;;;0.70;0.57;;;;;;;29.41;34.72;100618.53;6139845;23;20008;-74
2021/08/11 12:21:48;;;;;;;0.80;0.80;;;;;;;29.07;34.73;100617.81;6165422;23;20093;-73
2021/08/11 12:24:15;;;;;;;1.80;0.90;;;;;;;28.73;34.79;100629.16;6117964;23;20039;-74
2021/08/11 12:26:41;;;;;;;0.88;0.88;;;;;;;28.13;34.68;100619.56;6162755;23;20009;-74
2021/08/11 12:29:19;;;;;;;0.70;0.70;;;;;;;27.97;35.59;100619.78;6139945;23;20111;-75
2021/08/11 12:31:49;;;;;;;0.77;0.77;;;;;;;28.80;36.47;100620.00;6187923;23;20004;-74
2021/08/11 12:34:15;;;;;;;0.90;0.80;;;;;;;29.56;33.02;100632.72;6165639;23;20016;-74
2021/08/11 12:36:43;;;;;;;0.80;0.80;;;;;;;30.18;33.92;100631.09;6137462;23;20005;-73
2021/08/11 12:39:14;;;;;;;0.70;0.70;;;;;;;31.36;32.27;100649.56;6190778;23;20005;-74
2021/08/11 12:42:02;;;;;;;1.83;0.77;;;;;;;32.29;29.37;100640.13;6164792;23;20012;-73
2021/08/11 12:44:30;;;;;;;0.60;0.60;;;;;;;31.93;29.02;100637.41;6164994;23;20420;-73
2021/08/11 12:47:02;;;;;;;1.27;0.77;;;;;;;31.77;30.15;100630.16;6190447;23;20023;-74
2021/08/11 12:49:41;;;;;;;0.68;0.68;;;;;;;32.43;28.68;100640.06;6191608;23;20015;-74
2021/08/11 12:52:09;;;;;;;1.88;0.80;;;;;;;32.29;27.91;100643.75;6189390;23;20024;-74
2021/08/11 12:55:11;;;;;;;0.70;0.70;;;;;;;32.25;28.17;100630.84;6164388;23;20016;-74
2021/08/11 12:57:42;;;;;;;0.60;0.60;;;;;;;32.07;28.38;100637.34;6138353;23;20009;-74
2021/08/11 13:00:10;;;;;;;0.70;0.70;;;;;;;31.45;28.84;100624.53;6188925;23;20008;-74
2021/08/11 13:02:36;;;;;;;0.88;0.75;;;;;;;30.92;29.73;100626.13;6160047;23;20008;-74
2021/08/11 13:05:18;;;;;;;0.80;0.80;;;;;;;30.66;30.00;100635.75;6163148;23;20070;-74
2021/08/11 13:08:00;;;;;;;0.50;0.50;;;;;;;30.37;32.07;100618.69;6162914;23;20005;-74
2021/08/11 13:10:30;;;;;;;0.80;0.80;;;;;;;31.37;30.91;100623.72;6192680;23;20004;-74
2021/08/11 13:13:02;;;;;;;0.55;0.50;;;;;;;32.99;29.11;100633.72;6192545;23;20084;-74
2021/08/11 13:15:34;;;;;;;0.63;0.63;;;;;;;34.09;26.12;100630.25;6140293;23;20009;-73
2021/08/11 13:18:06;;;;;;;3.15;0.60;;;;;;;34.90;26.05;100632.47;6161771;23;19989;-73
2021/08/11 13:20:40;;;;;;;0.77;0.77;;;;;;;35.61;24.61;100632.50;6163904;23;19993;-74
2021/08/11 13:23:09;;;;;;;1.30;0.80;;;;;;;36.40;23.59;100633.00;6163015;23;20008;-74
2021/08/11 13:25:38;;;;;;;0.75;0.50;;;;;;;37.19;22.68;100647.47;6119063;23;20071;-74
2021/08/11 13:28:12;;;;;;;0.60;0.40;;;;;;;38.04;21.73;100642.81;6140112;23;20008;-73
2021/08/11 13:30:39;;;;;;;0.32;0.32;;;;;;;37.48;20.71;100635.38;6165248;23;20062;-73
2021/08/11 13:44:17;;;;;;;;;;;;;;;;;;;;;
2021/08/11 13:50:44;;;;;;;0.55;0.55;;;;;;;31.77;27.49;100624.50;5847351;24;20010;-76
2021/08/11 13:53:17;;;;;;;0.60;0.60;;;;;;;32.16;27.53;100634.91;5823938;24;20006;-73
2021/08/11 13:55:45;;;;;;;0.73;0.60;;;;;;;33.02;26.06;100624.38;6095771;23;20044;-74
2021/08/11 13:58:11;;;;;;;0.70;0.70;;;;;;;34.21;25.35;100634.56;6172755;23;20009;-73
2021/08/11 14:00:37;;;;;;;0.60;0.60;;;;;;;34.82;23.82;100628.13;6171904;23;20008;-72
2021/08/11 14:03:04;;;;;;;0.90;0.65;;;;;;;34.63;23.24;100635.25;6198424;23;19992;-73
2021/08/11 14:05:33;;;;;;;4.35;0.60;;;;;;;33.83;24.05;100638.25;6171273;23;19989;-73
2021/08/11 14:07:59;;;;;;;0.73;0.70;;;;;;;33.33;24.75;100635.88;6198219;23;20059;-74
2021/08/11 14:10:25;;;;;;;1.08;0.82;;;;;;;32.99;24.94;100633.72;6148172;23;20068;-73
2021/08/11 14:12:51;;;;;;;0.68;0.60;;;;;;;33.56;25.21;100638.91;6195635;23;20020;-74
2021/08/11 14:15:17;;;;;;;1.02;0.63;;;;;;;34.44;24.88;100626.19;6148415;23;20020;-74
2021/08/11 14:17:43;;;;;;;0.95;0.93;;;;;;;35.54;23.41;100635.47;6143925;23;20001;-74
2021/08/11 14:20:09;;;;;;;0.50;0.50;;;;;;;35.67;22.84;100637.69;6198679;23;20084;-74
2021/08/11 14:22:36;;;;;;;0.50;0.50;;;;;;;35.86;23.02;100625.56;6172881;23;20067;-73
2021/08/11 14:25:05;;;;;;;0.70;0.70;;;;;;;36.28;21.54;100614.56;6153929;23;20016;-73
2021/08/11 14:27:38;;;;;;;1.70;0.50;;;;;;;36.69;21.26;100627.47;6205599;23;20040;-74
2021/08/11 14:30:13;;;;;;;0.70;0.60;;;;;;;37.34;20.98;100620.25;6229653;23;20007;-74
2021/08/11 14:32:39;;;;;;;0.60;0.50;;;;;;;38.25;20.24;100610.03;6227514;23;20004;-73
2021/08/11 14:35:05;;;;;;;0.95;0.50;;;;;;;38.38;19.14;100630.03;6230302;23;20021;-75
2021/08/11 14:37:30;;;;;;;0.82;0.68;;;;;;;38.15;18.73;100626.19;6229270;23;20079;-74
2021/08/11 14:40:01;;;;;;;0.70;0.55;;;;;;;38.20;19.15;100613.44;6228764;23;20015;-73
2021/08/11 14:42:30;;;;;;;0.40;0.40;;;;;;;37.93;19.02;100626.00;6176995;23;20103;-74
2021/08/11 14:44:59;;;;;;;0.50;0.50;;;;;;;37.79;19.38;100620.69;6177281;23;20008;-75
2021/08/11 14:47:26;;;;;;;2.33;0.60;;;;;;;37.96;19.10;100619.41;6193990;23;20063;-74
2021/08/11 14:49:54;;;;;;;2.55;0.80;;;;;;;37.50;19.44;100627.16;6196241;23;20016;-73
2021/08/11 14:52:20;;;;;;;2.90;0.68;;;;;;;35.83;20.38;100623.59;6167882;23;20036;-73
2021/08/11 14:54:49;;;;;;;1.27;0.60;;;;;;;33.62;22.51;100618.63;6147886;23;20016;-73
2021/08/11 14:57:16;;;;;;;0.80;0.80;;;;;;;31.73;24.72;100623.72;6145590;23;20015;-74
2021/08/11 14:59:42;;;;;;;1.02;0.90;;;;;;;30.37;27.04;100618.69;6197887;23;20009;-73
2021/08/11 15:02:23;;;;;;;1.20;1.08;;;;;;;29.55;28.15;100608.56;6171124;23;19992;-72
2021/08/11 15:04:49;;;;;;;2.05;1.08;;;;;;;29.14;29.86;100625.53;6174288;23;20015;-73
2021/08/11 15:07:15;;;;;;;1.20;1.10;;;;;;;28.45;30.16;100616.34;6172552;23;19997;-73
2021/08/11 15:09:51;;;;;;;0.93;0.82;;;;;;;28.01;31.52;100625.47;6197525;23;20008;-73
2021/08/11 15:12:16;;;;;;;0.88;0.88;;;;;;;27.55;32.03;100633.97;6198522;23;20077;-73
2021/08/11 15:14:44;;;;;;;4.47;0.85;;;;;;;26.96;33.32;100612.53;6199201;23;20008;-73
2021/08/11 15:17:12;;;;;;;0.80;0.57;;;;;;;26.79;33.89;100618.63;6196554;23;20047;-73
2021/08/11 15:19:43;;;;;;;0.88;0.88;;;;;;;26.72;34.32;100607.28;6149228;23;20009;-74
2021/08/11 15:22:22;;;;;;;0.77;0.60;;;;;;;26.73;34.89;100611.72;6200829;23;20035;-73
2021/08/11 15:24:48;;;;;;;0.70;0.70;;;;;;;26.52;34.85;100604.47;6223624;23;20004;-74
2021/08/11 15:27:16;;;;;;;1.63;0.93;;;;;;;26.33;34.80;100591.28;6221797;23;20005;-73
2021/08/11 15:29:42;;;;;;;2.17;1.25;;;;;;;26.23;35.07;100595.50;6172401;23;20024;-73
2021/08/11 15:32:08;;;;;;;1.20;0.70;;;;;;;26.10;35.48;100599.63;6173969;23;20439;-75
2021/08/11 15:34:34;;;;;;;1.25;1.05;;;;;;;25.95;35.70;100590.88;6198139;23;20024;-75
2021/08/11 15:37:00;;;;;;;1.35;1.05;;;;;;;25.91;35.49;100589.97;6174592;23;20367;-73
2021/08/11 15:39:26;;;;;;;1.27;1.08;;;;;;;26.08;36.05;100593.56;6147063;23;20072;-74
2021/08/11 15:41:52;;;;;;;1.13;1.13;;;;;;;26.21;35.63;100597.84;6171662;23;20142;-73
2021/08/11 15:44:18;;;;;;;0.68;0.68;;;;;;;26.25;35.53;100600.72;6146026;23;19997;-74
2021/08/11 15:46:45;;;;;;;1.50;0.82;;;;;;;26.39;35.24;100594.59;6171106;23;20011;-74
2021/08/11 15:49:12;;;;;;;1.20;0.85;;;;;;;27.63;34.00;100600.00;6196063;23;20011;-74
2021/08/11 15:51:38;;;;;;;1.38;0.63;;;;;;;29.45;32.67;100593.19;6171710;23;20432;-74
2021/08/11 15:54:04;;;;;;;0.52;0.52;;;;;;;31.06;30.35;100592.28;6173945;23;20008;-74
2021/08/11 15:56:36;;;;;;;1.25;0.75;;;;;;;32.00;27.04;100586.47;6194153;23;20005;-74
2021/08/11 15:59:04;;;;;;;0.60;0.52;;;;;;;32.61;25.62;100588.19;6145059;23;20032;-73
2021/08/11 16:01:33;;;;;;;0.60;0.60;;;;;;;32.24;25.05;100581.16;6171318;23;20019;-74
2021/08/11 16:03:59;;;;;;;1.45;0.60;;;;;;;32.63;26.34;100577.28;6170935;23;20043;-73
2021/08/11 16:06:26;;;;;;;0.70;0.50;;;;;;;33.28;25.81;100579.66;6194621;23;20009;-74
2021/08/11 16:08:58;;;;;;;0.77;0.50;;;;;;;33.70;24.31;100571.94;6144379;23;20019;-74
2021/08/11 16:11:23;;;;;;;0.47;0.30;;;;;;;33.99;23.52;100568.78;6196662;23;20039;-74
2021/08/11 16:13:49;;;;;;;0.73;0.50;;;;;;;33.40;23.46;100567.81;6191110;23;20005;-74
2021/08/11 16:16:14;;;;;;;3.75;0.90;;;;;;;32.43;24.43;100565.69;6170955;23;20009;-75
2021/08/11 16:18:40;;;;;;;1.77;0.80;;;;;;;31.33;25.84;100583.38;6192733;23;20012;-73
2021/08/11 16:21:06;;;;;;;1.90;0.80;;;;;;;30.10;27.32;100576.69;6221721;23;20071;-74
2021/08/11 16:23:32;;;;;;;0.73;0.73;;;;;;;29.22;28.13;100568.13;6220352;23;20009;-74
2021/08/11 16:26:01;;;;;;;0.98;0.93;;;;;;;28.58;29.49;100579.50;6195365;23;20012;-73
2021/08/11 16:28:27;;;;;;;0.77;0.77;;;;;;;28.09;31.09;100570.13;6221230;23;20004;-73
2021/08/11 16:30:52;;;;;;;6.28;1.15;;;;;;;28.25;31.50;100583.97;6220003;23;20074;-72
2021/08/11 16:33:18;;;;;;;2.63;0.70;;;;;;;28.69;30.76;100564.41;6220283;23;20415;-74
2021/08/11 16:35:44;;;;;;;1.10;1.00;;;;;;;29.22;29.78;100562.50;6218376;23;20017;-75
2021/08/11 16:38:09;;;;;;;1.67;0.82;;;;;;;29.87;30.29;100577.78;6167822;23;20058;-74
2021/08/11 16:40:35;;;;;;;1.55;0.80;;;;;;;29.93;28.44;100578.22;6222494;23;20011;-74
2021/08/11 16:43:01;;;;;;;0.75;0.75;;;;;;;29.60;29.10;100577.22;6198771;23;20008;-73
2021/08/11 16:45:26;;;;;;;0.98;0.88;;;;;;;29.35;30.15;100583.50;6223863;23;20031;-74
2021/08/11 16:47:52;;;;;;;0.90;0.70;;;;;;;28.56;30.66;100574.28;6197018;23;20008;-73
2021/08/11 16:50:17;;;;;;;1.60;1.48;;;;;;;27.73;32.29;100586.47;6165703;23;20013;-73
2021/08/11 16:52:44;;;;;;;1.38;1.10;;;;;;;26.92;33.63;100597.63;6193338;23;20008;-74
2021/08/11 16:55:26;;;;;;;3.35;1.30;;;;;;;26.07;35.23;100577.94;6192911;23;20039;-75
2021/08/11 17:00:38;;;;;;;;;;;;;;;;;;;;;
2021/08/11 17:03:07;;;;;;;2.58;2.38;;;;;;;24.60;39.41;100586.38;6192261;23;20033;-75
2021/08/11 17:05:38;;;;;;;2.00;1.90;;;;;;;24.77;40.23;100572.03;6192341;23;20055;-74
2021/08/11 17:08:50;;;;;;;;;;;;;;;;;;;;;
2021/08/11 17:11:16;;;;;;;1.58;1.48;;;;;;;24.87;39.95;100560.31;6190213;23;20039;-75